createdAt,value
2024-03-13T00:02:03.808Z,17.50
2024-03-13T00:04:42.533Z,17.50
2024-03-13T00:07:12.330Z,14.93
2024-03-13T00:09:47.008Z,12.45
2024-03-13T00:12:15.340Z,10.27
2024-03-13T00:14:51.530Z,14.18
2024-03-13T00:17:21.495Z,14.40
2024-03-13T00:19:53.609Z,14.93
2024-03-13T00:22:20.289Z,20.13
2024-03-13T00:24:53.787Z,19.07
2024-03-13T00:27:21.373Z,19.25
2024-03-13T00:29:48.756Z,18.77
2024-03-13T00:32:16.590Z,18.88
2024-03-13T00:34:45.584Z,21.08
2024-03-13T00:37:12.463Z,23.27
2024-03-13T00:39:39.075Z,24.48
2024-03-13T00:42:06.313Z,24.30
2024-03-13T00:44:32.980Z,25.25
2024-03-13T00:46:59.416Z,26.60
2024-03-13T00:49:25.904Z,25.23
2024-03-13T00:51:52.449Z,28.52
2024-03-13T00:54:19.155Z,25.40
2024-03-13T00:56:49.226Z,25.38
2024-03-13T00:59:16.066Z,28.35
2024-03-13T01:01:42.614Z,29.20
2024-03-13T01:04:09.205Z,24.10
2024-03-13T01:06:35.675Z,27.08
2024-03-13T01:09:02.126Z,23.23
2024-03-13T01:11:32.240Z,24.70
2024-03-13T01:13:58.707Z,21.57
2024-03-13T01:16:27.025Z,24.33
2024-03-13T01:18:54.047Z,23.95
2024-03-13T01:21:23.241Z,24.55
2024-03-13T01:23:49.914Z,20.27
2024-03-13T01:26:16.411Z,23.00
2024-03-13T01:28:43.929Z,24.02
2024-03-13T01:31:10.859Z,20.80
2024-03-13T01:33:39.369Z,20.08
2024-03-13T01:36:09.414Z,20.65
2024-03-13T01:38:36.173Z,20.60
2024-03-13T01:41:21.510Z,21.73
2024-03-13T01:44:13.177Z,19.52
2024-03-13T01:46:57.937Z,21.83
2024-03-13T01:49:43.478Z,22.70
2024-03-13T01:52:33.531Z,19.57
2024-03-13T01:55:19.917Z,24.27
2024-03-13T01:57:57.351Z,24.95
2024-03-13T02:00:43.839Z,21.30
2024-03-13T02:03:10.819Z,24.10
2024-03-13T02:05:37.964Z,26.57
2024-03-13T02:08:05.704Z,23.15
2024-03-13T02:10:32.785Z,25.60
2024-03-13T02:13:06.583Z,28.48
2024-03-13T02:15:33.933Z,24.15
2024-03-13T02:18:04.148Z,25.90
2024-03-13T02:20:37.352Z,27.50
2024-03-13T02:23:05.467Z,29.45
2024-03-13T02:25:35.290Z,30.15
2024-03-13T02:28:02.358Z,31.30
2024-03-13T02:30:29.161Z,28.30
2024-03-13T02:32:55.856Z,29.58
2024-03-13T02:35:22.812Z,29.00
2024-03-13T02:37:50.107Z,27.17
2024-03-13T02:40:18.248Z,29.83
2024-03-13T02:42:45.529Z,29.47
2024-03-13T02:45:15.217Z,28.63
2024-03-13T02:47:45.572Z,27.60
2024-03-13T02:50:15.313Z,27.60
2024-03-13T02:52:41.949Z,26.17
2024-03-13T02:55:08.788Z,22.57
2024-03-13T02:57:35.244Z,20.63
2024-03-13T03:00:01.733Z,19.92
2024-03-13T03:02:29.077Z,20.15
2024-03-13T03:04:55.645Z,18.58
2024-03-13T03:07:22.347Z,20.23
2024-03-13T03:09:48.972Z,18.20
2024-03-13T03:12:15.659Z,19.33
2024-03-13T03:14:42.191Z,20.23
2024-03-13T03:17:09.038Z,20.30
2024-03-13T03:19:36.212Z,18.00
2024-03-13T03:22:03.761Z,21.58
2024-03-13T03:24:33.162Z,17.95
2024-03-13T03:26:59.768Z,16.80
2024-03-13T03:29:29.112Z,19.13
2024-03-13T03:31:55.613Z,19.47
2024-03-13T03:34:23.437Z,17.40
2024-03-13T03:36:50.226Z,17.25
2024-03-13T03:39:18.852Z,18.33
2024-03-13T03:41:48.319Z,19.65
2024-03-13T03:44:15.194Z,20.47
2024-03-13T03:46:41.580Z,17.90
2024-03-13T03:49:08.139Z,21.30
2024-03-13T03:51:34.776Z,18.67
2024-03-13T03:54:01.601Z,18.50
2024-03-13T03:56:33.366Z,20.50
2024-03-13T03:58:59.787Z,20.02
2024-03-13T04:01:26.826Z,19.05
2024-03-13T04:03:53.465Z,17.15
2024-03-13T04:06:20.834Z,19.63
2024-03-13T04:08:48.311Z,19.77
2024-03-13T04:11:19.568Z,19.58
2024-03-13T04:13:46.580Z,18.25
2024-03-13T04:16:14.495Z,17.05
2024-03-13T04:18:44.942Z,18.95
2024-03-13T04:21:12.875Z,15.37
2024-03-13T04:23:40.052Z,18.00
2024-03-13T04:26:06.858Z,18.85
2024-03-13T04:28:33.643Z,16.95
2024-03-13T04:31:06.780Z,17.77
2024-03-13T04:33:33.479Z,16.37
2024-03-13T04:36:00.081Z,17.98
2024-03-13T04:38:26.688Z,19.00
2024-03-13T04:40:53.333Z,16.73
2024-03-13T04:43:20.129Z,16.17
2024-03-13T04:45:46.672Z,14.47
2024-03-13T04:48:14.463Z,16.95
2024-03-13T04:50:44.224Z,15.18
2024-03-13T04:53:10.800Z,14.85
2024-03-13T04:55:37.385Z,16.40
2024-03-13T04:58:04.050Z,16.67
2024-03-13T05:00:30.512Z,17.17
2024-03-13T05:02:57.095Z,21.83
2024-03-13T05:05:23.446Z,19.58
2024-03-13T05:07:50.736Z,19.55
2024-03-13T05:10:18.835Z,18.37
2024-03-13T05:12:46.169Z,19.55
2024-03-13T05:15:13.199Z,16.13
2024-03-13T05:17:39.863Z,16.00
2024-03-13T05:20:08.311Z,16.58
2024-03-13T05:22:35.132Z,14.57
2024-03-13T05:25:01.744Z,13.00
2024-03-13T05:27:28.329Z,12.70
2024-03-13T05:29:54.999Z,13.25
2024-03-13T05:32:24.899Z,12.40
2024-03-13T05:34:51.408Z,12.17
2024-03-13T05:37:18.398Z,13.63
2024-03-13T05:39:45.639Z,13.85
2024-03-13T05:42:12.939Z,10.40
2024-03-13T05:44:40.813Z,10.98
2024-03-13T05:47:10.540Z,10.37
2024-03-13T05:49:39.853Z,9.52
2024-03-13T05:52:06.866Z,8.55
2024-03-13T05:54:33.853Z,8.43
2024-03-13T05:57:00.558Z,9.00
2024-03-13T05:59:27.216Z,8.63
2024-03-13T06:01:59.337Z,8.30
2024-03-13T06:04:26.340Z,8.30
2024-03-13T06:06:53.653Z,8.25
2024-03-13T06:09:21.154Z,8.18
2024-03-13T06:11:47.972Z,8.03
2024-03-13T06:14:14.410Z,8.70
2024-03-13T06:16:40.840Z,8.23
2024-03-13T06:19:07.903Z,9.40
2024-03-13T06:21:36.042Z,10.50
2024-03-13T06:24:06.228Z,11.30
2024-03-13T06:26:32.919Z,10.35
2024-03-13T06:29:28.756Z,10.07
2024-03-13T06:31:55.420Z,9.48
2024-03-13T06:34:24.671Z,10.57
2024-03-13T06:36:51.556Z,10.83
2024-03-13T06:39:20.407Z,11.88
2024-03-13T06:41:47.880Z,10.98
2024-03-13T06:44:14.730Z,11.13
2024-03-13T06:46:41.418Z,10.15
2024-03-13T06:49:08.231Z,9.60
2024-03-13T06:51:35.540Z,11.13
2024-03-13T06:54:04.979Z,12.55
2024-03-13T06:56:33.338Z,11.68
2024-03-13T06:58:59.776Z,14.40
2024-03-13T07:01:26.697Z,15.13
2024-03-13T07:03:53.656Z,13.82
2024-03-13T07:06:20.156Z,16.08
2024-03-13T07:08:46.870Z,15.23
2024-03-13T07:11:14.780Z,14.38
2024-03-13T07:13:41.345Z,14.30
2024-03-13T07:16:08.555Z,16.00
2024-03-13T07:18:35.497Z,15.35
2024-03-13T07:21:03.624Z,12.10
2024-03-13T07:23:30.047Z,13.90
2024-03-13T07:25:57.029Z,13.67
2024-03-13T07:28:23.740Z,15.10
2024-03-13T07:30:50.414Z,14.23
2024-03-13T07:33:17.719Z,13.23
2024-03-13T07:35:44.180Z,14.85
2024-03-13T07:38:11.253Z,13.83
2024-03-13T07:40:39.028Z,15.25
2024-03-13T07:43:09.851Z,16.58
2024-03-13T07:45:44.257Z,16.55
2024-03-13T07:48:11.078Z,16.75
2024-03-13T07:50:40.180Z,20.43
2024-03-13T07:53:06.985Z,19.85
2024-03-13T07:55:34.151Z,19.83
2024-03-13T07:58:01.575Z,18.88
2024-03-13T08:00:31.047Z,20.52
2024-03-13T08:03:00.762Z,22.40
2024-03-13T08:05:27.402Z,26.00
2024-03-13T09:05:56.272Z,21.80
2024-03-13T09:08:35.923Z,20.15
2024-03-13T09:11:10.942Z,22.20
2024-03-13T09:13:37.801Z,20.90
2024-03-13T09:16:05.368Z,21.70
2024-03-13T09:18:34.805Z,20.35
2024-03-13T09:21:01.422Z,18.55
2024-03-13T09:23:27.895Z,17.93
2024-03-13T09:25:56.615Z,17.48
2024-03-13T09:28:23.487Z,19.55
2024-03-13T09:30:53.332Z,19.25
2024-03-13T09:33:20.202Z,16.38
2024-03-13T09:35:46.812Z,16.70
2024-03-13T09:38:13.688Z,15.70
2024-03-13T09:40:46.732Z,14.95
2024-03-13T09:43:20.680Z,12.52
2024-03-13T09:45:51.974Z,13.77
2024-03-13T09:48:19.539Z,12.90
2024-03-13T09:50:53.502Z,10.52
2024-03-13T09:53:22.866Z,10.80
2024-03-13T09:55:50.450Z,10.50
2024-03-13T09:58:20.102Z,8.80
2024-03-13T10:00:47.263Z,9.43
2024-03-13T10:03:25.573Z,8.73
2024-03-13T10:06:01.945Z,8.93
2024-03-13T10:08:32.692Z,9.13
2024-03-13T10:11:02.444Z,9.23
2024-03-13T10:13:30.516Z,8.27
2024-03-13T10:15:58.867Z,7.75
2024-03-13T10:18:27.823Z,7.75
2024-03-13T10:21:07.806Z,7.00
2024-03-13T10:23:35.672Z,6.78
2024-03-13T10:26:02.807Z,7.23
2024-03-13T10:28:30.827Z,6.63
2024-03-13T10:30:59.393Z,6.82
2024-03-13T10:33:26.420Z,6.07
2024-03-13T10:35:53.149Z,6.07
2024-03-13T10:38:20.558Z,6.60
2024-03-13T10:40:47.530Z,6.80
2024-03-13T10:43:15.175Z,6.30
2024-03-13T10:45:52.430Z,6.53
2024-03-13T10:48:19.121Z,5.78
2024-03-13T10:50:47.775Z,5.30
2024-03-13T10:53:14.312Z,5.28
2024-03-13T10:55:40.868Z,6.78
2024-03-13T10:58:19.563Z,4.82
2024-03-13T11:00:47.907Z,4.03
2024-03-13T11:03:14.436Z,3.97
2024-03-13T11:05:41.579Z,4.00
2024-03-13T11:08:08.652Z,7.30
2024-03-13T11:10:38.516Z,4.70
2024-03-13T11:13:11.639Z,4.30
2024-03-13T11:15:38.961Z,4.27
2024-03-13T11:18:15.332Z,4.15
2024-03-13T11:20:49.330Z,4.03
2024-03-13T11:23:22.728Z,3.83
2024-03-13T11:25:49.640Z,4.20
2024-03-13T11:28:21.984Z,3.93
2024-03-13T11:30:48.884Z,4.10
2024-03-13T11:33:15.779Z,4.43
2024-03-13T11:35:46.160Z,3.80
2024-03-13T11:38:12.707Z,3.80
2024-03-13T11:40:39.500Z,3.93
2024-03-13T11:43:09.616Z,3.42
2024-03-13T11:45:45.583Z,3.92
2024-03-13T11:48:20.069Z,3.17
2024-03-13T11:51:02.482Z,3.67
2024-03-13T11:53:32.917Z,4.40
2024-03-13T11:56:01.261Z,4.10
2024-03-13T11:58:32.485Z,3.80
2024-03-13T12:01:00.550Z,3.67
2024-03-13T12:03:41.105Z,3.40
2024-03-13T12:06:11.487Z,3.40
2024-03-13T12:08:39.368Z,3.13
2024-03-13T12:11:05.940Z,2.83
2024-03-13T12:13:34.523Z,3.30
2024-03-13T12:16:01.005Z,2.85
2024-03-13T12:18:27.675Z,2.90
2024-03-13T12:20:55.823Z,3.80
2024-03-13T12:23:24.254Z,3.80
2024-03-13T12:25:51.494Z,3.20
2024-03-13T12:28:22.316Z,5.40
2024-03-13T12:30:51.667Z,4.80
2024-03-13T12:33:18.367Z,6.15
2024-03-13T12:35:45.551Z,7.32
2024-03-13T12:38:15.276Z,9.43
2024-03-13T12:40:42.874Z,9.70
2024-03-13T12:43:10.180Z,10.60
2024-03-13T12:45:36.643Z,9.50
2024-03-13T12:48:04.365Z,10.48
2024-03-13T12:50:32.685Z,10.68
2024-03-13T12:53:00.373Z,12.10
2024-03-13T12:55:26.808Z,10.83
2024-03-13T12:58:01.908Z,10.60
2024-03-13T13:00:28.469Z,12.05
2024-03-13T13:02:55.591Z,10.32
2024-03-13T13:05:22.462Z,10.40
2024-03-13T13:07:52.783Z,9.27
2024-03-13T13:10:23.528Z,9.82
2024-03-13T13:12:53.548Z,10.00
2024-03-13T13:15:20.364Z,9.77
2024-03-13T13:17:48.663Z,9.23
2024-03-13T13:20:17.476Z,7.83
2024-03-13T13:22:46.937Z,7.75
2024-03-13T13:25:13.783Z,6.38
2024-03-13T13:27:44.115Z,6.10
2024-03-13T13:30:17.307Z,4.32
2024-03-13T13:32:44.804Z,3.53
2024-03-13T13:35:15.631Z,4.28
2024-03-13T13:37:45.926Z,3.72
2024-03-13T13:40:21.054Z,3.28
2024-03-13T13:42:56.055Z,3.42
2024-03-13T13:45:25.873Z,3.20
2024-03-13T13:47:53.620Z,3.30
2024-03-13T13:50:20.668Z,2.90
2024-03-13T13:52:47.407Z,3.58
2024-03-13T13:55:15.189Z,5.15
2024-03-13T13:57:50.313Z,5.33
2024-03-13T14:00:19.463Z,5.10
2024-03-13T14:02:47.380Z,5.80
2024-03-13T14:05:14.513Z,6.93
2024-03-13T14:07:41.375Z,8.43
2024-03-13T14:10:12.079Z,9.33
2024-03-13T14:12:38.847Z,10.40
2024-03-13T14:15:05.912Z,11.27
2024-03-13T14:17:35.604Z,9.80
2024-03-13T14:20:02.559Z,10.65
2024-03-13T14:22:29.167Z,10.37
2024-03-13T14:24:56.035Z,9.85
2024-03-13T14:27:22.684Z,10.57
2024-03-13T14:29:49.773Z,9.30
2024-03-13T14:32:17.136Z,9.63
2024-03-13T14:34:54.711Z,8.57
2024-03-13T14:37:26.528Z,8.70
2024-03-13T14:39:54.238Z,8.68
2024-03-13T14:42:28.556Z,8.98
2024-03-13T14:45:03.097Z,9.27
2024-03-13T14:47:29.801Z,7.57
2024-03-13T14:49:57.246Z,6.38
2024-03-13T14:52:24.024Z,6.88
2024-03-13T14:54:53.011Z,5.93
2024-03-13T14:57:28.845Z,6.30
2024-03-13T15:02:23.026Z,5.32
2024-03-13T15:04:49.534Z,6.00
2024-03-13T15:07:16.131Z,6.60
2024-03-13T15:09:43.696Z,6.97
2024-03-13T15:12:15.220Z,5.90
2024-03-13T15:14:43.206Z,5.32
2024-03-13T15:17:14.786Z,6.15
2024-03-13T15:19:44.667Z,6.15
2024-03-13T15:22:11.399Z,5.70
2024-03-13T15:24:39.759Z,6.03
2024-03-13T15:27:06.531Z,5.95
2024-03-13T15:29:34.189Z,5.75
2024-03-13T15:32:00.783Z,6.03
2024-03-13T15:34:27.277Z,5.43
2024-03-13T15:36:53.874Z,5.20
2024-03-13T15:39:20.903Z,13.18
2024-03-13T15:41:47.605Z,6.20
2024-03-13T15:44:14.289Z,7.50
2024-03-13T15:46:43.020Z,7.05
2024-03-13T15:49:10.767Z,5.03
2024-03-13T15:51:37.899Z,4.50
2024-03-13T15:54:05.408Z,5.10
2024-03-13T15:56:31.922Z,5.13
2024-03-13T15:58:58.405Z,4.20
2024-03-13T16:01:24.752Z,4.27
2024-03-13T16:03:51.272Z,4.28
2024-03-13T16:06:17.941Z,3.67
2024-03-13T16:08:47.914Z,4.88
2024-03-13T16:11:14.499Z,3.97
2024-03-13T16:13:41.101Z,3.90
2024-03-13T16:16:07.609Z,4.07
2024-03-13T16:18:34.237Z,4.80
2024-03-13T16:21:01.084Z,7.55
2024-03-13T16:23:27.593Z,3.90
2024-03-13T16:25:53.978Z,3.80
2024-03-13T16:28:20.439Z,4.78
2024-03-13T16:30:46.945Z,4.03
2024-03-13T16:33:13.480Z,4.15
2024-03-13T16:35:40.097Z,6.05
2024-03-13T16:38:06.552Z,4.80
2024-03-13T16:40:32.931Z,3.67
2024-03-13T16:42:59.372Z,3.70
2024-03-13T16:45:25.908Z,3.83
2024-03-13T16:47:52.518Z,3.80
2024-03-13T16:50:19.134Z,4.20
2024-03-13T16:52:45.583Z,4.53
2024-03-13T16:55:15.171Z,4.65
2024-03-13T16:57:43.708Z,4.05
2024-03-13T17:00:11.409Z,3.97
2024-03-13T17:02:39.102Z,4.13
2024-03-13T17:05:06.439Z,3.92
2024-03-13T17:07:32.974Z,4.05
2024-03-13T17:09:59.446Z,3.30
2024-03-13T17:12:29.115Z,4.45
2024-03-13T17:14:55.683Z,3.80
2024-03-13T17:17:25.206Z,4.13
2024-03-13T17:19:56.360Z,4.50
2024-03-13T17:22:25.346Z,4.35
2024-03-13T17:24:52.282Z,3.88
2024-03-13T17:27:18.900Z,5.03
2024-03-13T17:29:45.572Z,5.75
2024-03-13T17:32:13.638Z,4.50
2024-03-13T17:34:40.631Z,4.45
2024-03-13T17:37:08.433Z,4.70
2024-03-13T17:39:35.108Z,3.90
2024-03-13T17:42:03.936Z,3.97
2024-03-13T17:44:32.026Z,4.95
2024-03-13T17:46:58.547Z,4.22
2024-03-13T17:49:24.947Z,4.75
2024-03-13T17:51:51.499Z,3.83
2024-03-13T17:54:17.977Z,4.03
2024-03-13T17:56:45.829Z,4.20
2024-03-13T17:59:12.355Z,4.28
2024-03-13T18:01:45.411Z,4.07
2024-03-13T18:04:12.336Z,3.80
2024-03-13T18:06:40.820Z,4.20
2024-03-13T18:09:11.106Z,4.20
2024-03-13T18:11:38.428Z,3.88
2024-03-13T18:14:08.613Z,4.20
2024-03-13T18:16:36.578Z,3.57
2024-03-13T18:19:04.168Z,4.03
2024-03-13T18:21:31.103Z,4.00
2024-03-13T18:23:57.764Z,3.50
2024-03-13T18:26:24.257Z,4.60
2024-03-13T18:28:51.673Z,3.77
2024-03-13T18:31:18.203Z,3.97
2024-03-13T18:33:44.956Z,4.32
2024-03-13T18:36:15.476Z,3.65
2024-03-13T18:38:42.299Z,4.00
2024-03-13T18:41:10.747Z,3.97
2024-03-13T18:43:37.963Z,5.20
2024-03-13T18:46:04.478Z,3.65
2024-03-13T18:48:31.020Z,4.95
2024-03-13T18:50:57.527Z,4.60
2024-03-13T18:53:24.064Z,4.03
2024-03-13T18:55:50.484Z,4.60
2024-03-13T18:58:17.057Z,5.55
2024-03-13T19:00:43.551Z,5.70
2024-03-13T19:03:10.416Z,5.40
2024-03-13T19:05:37.637Z,5.20
2024-03-13T19:08:04.621Z,5.47
2024-03-13T19:10:31.621Z,6.20
2024-03-13T19:12:59.840Z,5.50
2024-03-13T19:15:30.072Z,6.60
2024-03-13T19:17:59.300Z,6.13
2024-03-13T19:20:25.812Z,5.88
2024-03-13T19:22:52.339Z,6.43
2024-03-13T19:25:18.785Z,6.28
2024-03-13T19:27:45.158Z,6.97
2024-03-13T19:30:11.653Z,6.37
2024-03-13T19:32:38.165Z,6.47
2024-03-13T19:35:04.631Z,9.00
2024-03-13T19:37:30.997Z,6.95
2024-03-13T19:39:59.465Z,6.43
2024-03-13T19:42:26.066Z,6.80
2024-03-13T19:44:55.603Z,6.47
2024-03-13T19:47:23.290Z,6.90
2024-03-13T19:49:49.809Z,7.53
2024-03-13T19:52:16.391Z,7.55
2024-03-13T19:54:42.800Z,7.23
2024-03-13T19:57:09.154Z,7.00
2024-03-13T19:59:35.593Z,7.03
2024-03-13T20:02:02.223Z,7.03
2024-03-13T20:04:30.371Z,6.95
2024-03-13T20:06:58.021Z,7.43
2024-03-13T20:09:24.609Z,8.15
2024-03-13T20:11:51.292Z,7.43
2024-03-13T20:14:21.075Z,7.65
2024-03-13T20:16:47.933Z,8.00
2024-03-13T20:19:14.873Z,7.00
2024-03-13T20:21:41.392Z,7.40
2024-03-13T20:24:08.465Z,7.57
2024-03-13T20:26:39.476Z,7.57
2024-03-13T20:29:05.918Z,8.52
2024-03-13T20:31:32.360Z,7.17
2024-03-13T20:33:58.996Z,7.68
2024-03-13T20:36:25.594Z,7.78
2024-03-13T20:38:52.122Z,8.05
2024-03-13T20:41:19.467Z,8.43
2024-03-13T20:43:45.842Z,8.33
2024-03-13T20:46:13.880Z,7.70
2024-03-13T20:48:40.427Z,8.18
2024-03-13T20:51:06.877Z,8.15
2024-03-13T20:53:33.391Z,8.38
2024-03-13T20:56:00.396Z,8.33
2024-03-13T20:58:26.773Z,8.65
2024-03-13T21:00:53.166Z,9.07
2024-03-13T21:03:19.685Z,8.18
2024-03-13T21:05:46.597Z,8.80
2024-03-13T21:08:14.188Z,7.63
2024-03-13T21:10:43.279Z,8.50
2024-03-13T21:13:10.581Z,8.63
2024-03-13T21:15:42.616Z,8.02
2024-03-13T21:18:16.303Z,8.07
2024-03-13T21:20:42.829Z,11.37
2024-03-13T21:23:10.224Z,9.27
2024-03-13T21:25:37.644Z,15.65
2024-03-13T21:28:06.095Z,8.55
2024-03-13T21:30:33.210Z,39.80
2024-03-13T21:33:00.744Z,10.07
2024-03-13T21:35:30.979Z,8.20
2024-03-13T21:37:59.680Z,8.63
2024-03-13T21:40:26.231Z,7.43
2024-03-13T21:42:52.710Z,8.18
2024-03-13T21:45:19.204Z,8.27
2024-03-13T21:47:46.834Z,8.57
2024-03-13T21:50:13.425Z,9.35
2024-03-13T21:52:40.548Z,8.15
2024-03-13T21:55:09.234Z,9.25
2024-03-13T21:57:35.926Z,8.23
2024-03-13T22:00:02.468Z,7.95
2024-03-13T22:02:28.910Z,8.23
2024-03-13T22:04:55.300Z,8.75
2024-03-13T22:07:22.248Z,8.55
2024-03-13T22:09:48.646Z,10.00
2024-03-13T22:12:15.938Z,9.57
2024-03-13T22:14:44.471Z,9.25
2024-03-13T22:17:11.392Z,8.50
2024-03-13T22:19:38.718Z,9.00
2024-03-13T22:22:05.142Z,8.27
2024-03-13T22:24:31.550Z,7.80
2024-03-13T22:26:58.140Z,9.00
2024-03-13T22:29:24.687Z,8.00
2024-03-13T22:31:51.081Z,8.02
2024-03-13T22:34:17.501Z,8.33
2024-03-13T22:36:43.920Z,8.90
2024-03-13T22:39:10.790Z,8.98
2024-03-13T22:41:37.315Z,8.30
2024-03-13T22:44:03.781Z,8.55
2024-03-13T22:46:30.431Z,7.90
2024-03-13T22:48:56.926Z,8.13
2024-03-13T22:51:23.642Z,7.72
2024-03-13T22:53:50.165Z,8.30
2024-03-13T22:56:16.524Z,7.75
2024-03-13T22:58:42.921Z,7.53
2024-03-13T23:01:10.425Z,8.18
2024-03-13T23:03:37.699Z,7.68
2024-03-13T23:06:04.812Z,7.20
2024-03-13T23:08:31.838Z,7.72
2024-03-13T23:11:00.950Z,6.67
2024-03-13T23:13:27.310Z,7.28
2024-03-13T23:15:53.915Z,7.43
2024-03-13T23:18:20.959Z,6.90
2024-03-13T23:20:47.422Z,7.57
2024-03-13T23:23:14.019Z,6.83
2024-03-13T23:25:40.418Z,7.20
2024-03-13T23:28:07.550Z,7.03
2024-03-13T23:30:34.264Z,7.22
2024-03-13T23:33:00.889Z,6.78
2024-03-13T23:35:27.378Z,7.40
2024-03-13T23:37:53.764Z,6.22
2024-03-13T23:40:20.242Z,6.53
2024-03-13T23:42:52.075Z,6.75
2024-03-13T23:45:18.519Z,7.07
2024-03-13T23:47:46.324Z,6.87
2024-03-13T23:50:13.260Z,6.43
2024-03-13T23:52:49.185Z,6.32
2024-03-13T23:55:17.319Z,6.57
2024-03-13T23:57:43.962Z,6.53
